createdAt,value
2023-01-17T00:05:09.004Z,80.05
2023-01-17T00:10:15.235Z,79.89
2023-01-17T00:15:19.973Z,80.10
2023-01-17T00:20:43.043Z,80.28
2023-01-17T00:26:03.342Z,79.91
2023-01-17T00:31:07.113Z,80.36
2023-01-17T00:36:09.727Z,80.03
2023-01-17T00:41:14.498Z,80.08
2023-01-17T00:46:36.089Z,80.00
2023-01-17T00:51:57.202Z,80.29
2023-01-17T00:57:19.059Z,80.24
2023-01-17T01:02:40.215Z,80.70
2023-01-17T01:08:00.587Z,80.76
2023-01-17T01:13:21.250Z,81.18
2023-01-17T01:18:41.912Z,80.24
2023-01-17T01:24:02.396Z,80.88
2023-01-17T01:29:23.211Z,80.46
2023-01-17T01:34:25.230Z,81.01
2023-01-17T01:39:28.089Z,80.64
2023-01-17T01:44:48.629Z,80.25
2023-01-17T01:49:51.400Z,80.88
2023-01-17T01:54:58.700Z,81.31
2023-01-17T02:05:42.719Z,81.06
2023-01-17T02:10:44.852Z,80.49
2023-01-17T02:15:58.773Z,80.54
2023-01-17T02:21:34.633Z,81.13
2023-01-17T02:26:59.051Z,80.67
2023-01-17T02:32:25.817Z,80.45
2023-01-17T02:37:53.157Z,80.66
2023-01-17T02:43:02.934Z,81.24
2023-01-17T02:48:08.403Z,80.89
2023-01-17T02:53:37.703Z,80.64
2023-01-17T02:58:47.343Z,81.42
2023-01-17T03:03:56.301Z,81.11
2023-01-17T03:08:58.516Z,80.93
2023-01-17T03:14:00.527Z,81.23
2023-01-17T03:19:02.949Z,80.96
2023-01-17T03:24:05.180Z,81.15
2023-01-17T03:29:07.185Z,81.25
2023-01-17T03:34:09.578Z,81.42
2023-01-17T03:39:11.965Z,81.39
2023-01-17T03:44:14.030Z,81.45
2023-01-17T03:49:16.984Z,81.46
2023-01-17T03:54:19.711Z,81.55
2023-01-17T03:59:21.745Z,82.17
2023-01-17T04:04:24.267Z,81.54
2023-01-17T04:09:26.399Z,81.70
2023-01-17T04:14:28.945Z,81.37
2023-01-17T04:19:32.942Z,81.34
2023-01-17T04:24:35.268Z,82.02
2023-01-17T04:29:37.285Z,82.29
2023-01-17T04:34:39.375Z,81.94
2023-01-17T04:39:41.438Z,82.22
2023-01-17T04:44:43.453Z,81.93
2023-01-17T04:49:45.494Z,82.41
2023-01-17T04:54:50.301Z,82.11
2023-01-17T04:59:53.934Z,82.31
2023-01-17T05:04:55.971Z,82.35
2023-01-17T05:10:00.066Z,82.22
2023-01-17T05:15:02.286Z,81.52
2023-01-17T05:20:04.672Z,82.38
2023-01-17T05:25:07.218Z,82.03
2023-01-17T05:30:10.123Z,81.71
2023-01-17T05:35:11.983Z,81.50
2023-01-17T05:40:14.079Z,81.58
2023-01-17T05:45:17.436Z,81.61
2023-01-17T05:50:26.264Z,81.33
2023-01-17T05:55:29.792Z,81.56
2023-01-17T06:00:32.681Z,81.38
2023-01-17T06:05:34.697Z,81.44
2023-01-17T06:10:36.749Z,81.14
2023-01-17T06:15:39.877Z,81.41
2023-01-17T06:20:41.973Z,81.47
2023-01-17T06:25:46.113Z,81.02
2023-01-17T06:30:48.605Z,81.15
2023-01-17T06:35:52.085Z,81.35
2023-01-17T06:40:55.293Z,81.07
2023-01-17T06:45:57.274Z,81.89
2023-01-17T06:50:59.365Z,81.55
2023-01-17T06:56:01.469Z,81.48
2023-01-17T07:01:11.392Z,81.41
2023-01-17T07:06:13.635Z,81.64
2023-01-17T07:11:15.857Z,81.78
2023-01-17T07:16:17.976Z,81.42
2023-01-17T07:21:20.293Z,82.13
2023-01-17T07:26:22.234Z,81.79
2023-01-17T07:31:24.249Z,81.58
2023-01-17T07:36:26.291Z,82.46
2023-01-17T07:41:28.413Z,82.29
2023-01-17T07:46:30.462Z,82.23
2023-01-17T07:51:32.481Z,81.85
2023-01-17T07:56:35.228Z,81.68
2023-01-17T08:01:37.413Z,82.27
2023-01-17T08:06:43.677Z,82.79
2023-01-17T08:11:45.696Z,82.64
2023-01-17T08:16:47.679Z,82.24
2023-01-17T08:21:49.734Z,82.49
2023-01-17T08:26:51.838Z,83.17
2023-01-17T08:31:54.478Z,82.82
2023-01-17T08:36:56.577Z,82.65
2023-01-17T08:41:58.544Z,82.47
2023-01-17T08:47:01.666Z,83.04
2023-01-17T08:52:03.803Z,82.03
2023-01-17T08:57:05.933Z,83.30
2023-01-17T09:02:15.256Z,82.58
2023-01-17T09:07:19.225Z,82.76
2023-01-17T09:12:22.628Z,83.26
2023-01-17T09:17:24.707Z,82.48
2023-01-17T09:22:27.424Z,83.18
2023-01-17T09:27:29.520Z,82.53
2023-01-17T09:32:31.592Z,82.51
2023-01-17T09:37:33.703Z,82.77
2023-01-17T09:42:39.968Z,82.54
2023-01-17T09:47:45.438Z,82.07
2023-01-17T09:52:47.794Z,82.39
2023-01-17T09:58:12.380Z,81.66
2023-01-17T10:03:52.911Z,81.98
2023-01-17T10:09:20.779Z,81.44
2023-01-17T10:14:29.305Z,80.90
2023-01-17T10:20:18.415Z,81.36
2023-01-17T10:25:33.549Z,81.21
2023-01-17T10:30:42.920Z,81.03
2023-01-17T10:35:57.290Z,81.41
2023-01-17T10:41:15.070Z,81.54
2023-01-17T10:46:28.885Z,81.20
2023-01-17T10:51:43.401Z,81.39
2023-01-17T10:56:45.474Z,80.97
2023-01-17T11:01:49.196Z,81.54
2023-01-17T11:07:15.047Z,80.46
2023-01-17T11:12:33.584Z,79.80
2023-01-17T11:17:50.381Z,80.56
2023-01-17T11:23:19.277Z,80.19
2023-01-17T11:28:33.197Z,80.28
2023-01-17T11:33:48.627Z,79.62
2023-01-17T11:39:07.380Z,80.50
2023-01-17T11:44:30.728Z,81.23
2023-01-17T11:49:32.817Z,81.59
2023-01-17T11:54:40.792Z,81.63
2023-01-17T11:59:44.083Z,81.78
2023-01-17T12:04:55.784Z,81.46
2023-01-17T12:10:05.554Z,81.08
2023-01-17T12:15:22.511Z,80.81
2023-01-17T12:21:04.401Z,79.40
2023-01-17T12:26:57.463Z,79.06
2023-01-17T12:32:17.017Z,77.96
2023-01-17T12:37:41.622Z,77.89
2023-01-17T12:42:51.827Z,77.88
2023-01-17T12:48:01.684Z,78.07
2023-01-17T12:53:17.423Z,77.21
2023-01-17T12:58:25.946Z,77.74
2023-01-17T13:03:56.073Z,76.89
2023-01-17T13:09:02.968Z,75.71
2023-01-17T13:14:09.281Z,75.24
2023-01-17T13:19:20.481Z,74.87
2023-01-17T13:24:45.005Z,75.27
2023-01-17T13:30:15.748Z,74.64
2023-01-17T13:36:15.178Z,73.83
2023-01-17T13:41:45.258Z,73.96
2023-01-17T13:47:19.373Z,73.55
2023-01-17T13:52:21.359Z,73.87
2023-01-17T13:57:43.904Z,73.77
2023-01-17T14:02:46.807Z,74.05
2023-01-17T14:08:02.393Z,73.77
2023-01-17T14:13:25.119Z,74.49
2023-01-17T14:18:46.175Z,74.61
2023-01-17T14:23:48.836Z,73.56
2023-01-17T14:28:52.323Z,73.19
2023-01-17T14:33:54.642Z,73.10
2023-01-17T14:38:56.890Z,72.60
2023-01-17T14:44:01.443Z,72.97
2023-01-17T14:49:07.178Z,73.30
2023-01-17T14:54:21.447Z,72.87
2023-01-17T14:59:23.537Z,73.03
2023-01-17T15:04:28.165Z,73.34
2023-01-17T15:09:35.562Z,72.23
2023-01-17T15:14:42.937Z,72.39
2023-01-17T15:19:48.415Z,72.33
2023-01-17T15:24:51.105Z,72.22
2023-01-17T15:29:54.459Z,72.42
2023-01-17T15:34:57.411Z,72.60
2023-01-17T15:40:21.035Z,72.55
2023-01-17T15:45:31.103Z,72.92
2023-01-17T15:50:39.970Z,73.33
2023-01-17T15:55:42.040Z,73.35
2023-01-17T16:00:45.417Z,73.34
2023-01-17T16:05:48.619Z,73.72
2023-01-17T16:10:59.525Z,73.51
2023-01-17T16:16:24.318Z,74.43
2023-01-17T16:21:31.160Z,73.56
2023-01-17T16:26:33.384Z,73.51
2023-01-17T16:31:35.667Z,73.81
2023-01-17T16:36:37.791Z,74.38
2023-01-17T16:41:39.914Z,73.89
2023-01-17T16:46:42.125Z,74.14
2023-01-17T16:51:47.393Z,74.59
2023-01-17T16:56:49.663Z,74.51
2023-01-17T17:01:53.393Z,74.95
2023-01-17T17:06:55.467Z,74.23
2023-01-17T17:11:57.459Z,74.67
2023-01-17T17:17:02.531Z,74.09
2023-01-17T17:22:07.056Z,74.50
2023-01-17T17:27:09.417Z,74.30
2023-01-17T17:32:12.322Z,74.33
2023-01-17T17:37:16.452Z,75.05
2023-01-17T17:42:20.471Z,74.50
2023-01-17T17:47:24.617Z,74.52
2023-01-17T17:52:31.371Z,73.98
2023-01-17T17:57:33.521Z,74.02
2023-01-17T18:02:35.757Z,73.87
2023-01-17T18:07:38.564Z,74.07
2023-01-17T18:12:41.419Z,73.72
2023-01-17T18:17:43.956Z,73.34
2023-01-17T18:22:46.915Z,73.77
2023-01-17T18:27:49.758Z,74.08
2023-01-17T18:32:52.248Z,73.88
2023-01-17T18:37:55.009Z,73.76
2023-01-17T18:42:57.863Z,73.36
2023-01-17T18:48:00.696Z,73.51
2023-01-17T18:53:03.410Z,73.32
2023-01-17T18:58:06.166Z,73.22
2023-01-17T19:03:08.919Z,73.48
2023-01-17T19:08:11.713Z,73.14
2023-01-17T19:13:16.232Z,73.61
2023-01-17T19:18:19.456Z,73.17
2023-01-17T19:23:23.738Z,73.17
2023-01-17T19:28:27.347Z,72.84
2023-01-17T19:33:29.909Z,73.24
2023-01-17T19:38:35.447Z,73.14
2023-01-17T19:43:39.017Z,73.71
2023-01-17T19:48:46.443Z,73.71
2023-01-17T19:53:49.414Z,73.79
2023-01-17T19:58:52.676Z,73.42
2023-01-17T20:03:57.932Z,73.77
2023-01-17T20:09:01.390Z,73.26
2023-01-17T20:14:06.011Z,74.00
2023-01-17T20:19:08.705Z,73.56
2023-01-17T20:24:12.910Z,73.53
2023-01-17T20:29:19.701Z,73.65
2023-01-17T20:34:26.561Z,73.47
2023-01-17T20:39:33.262Z,73.24
2023-01-17T20:44:36.259Z,73.16
2023-01-17T20:49:38.711Z,72.93
2023-01-17T20:54:43.667Z,73.45
2023-01-17T20:59:46.964Z,72.99
2023-01-17T21:04:50.349Z,73.24
2023-01-17T21:09:53.404Z,72.74
2023-01-17T21:14:55.889Z,73.05
2023-01-17T21:19:59.479Z,73.13
2023-01-17T21:25:01.550Z,73.80
2023-01-17T21:30:03.906Z,73.88
2023-01-17T21:35:07.893Z,74.10
2023-01-17T21:40:10.847Z,73.95
2023-01-17T21:45:12.894Z,73.33
2023-01-17T21:50:28.452Z,73.10
2023-01-17T21:55:53.322Z,74.36
2023-01-17T22:01:07.933Z,72.94
2023-01-17T22:06:10.663Z,73.71
2023-01-17T22:11:15.487Z,73.63
2023-01-17T22:16:20.759Z,73.71
2023-01-17T22:21:25.048Z,72.52
2023-01-17T22:26:29.913Z,73.63
2023-01-17T22:31:31.999Z,73.16
2023-01-17T22:36:34.394Z,73.86
2023-01-17T22:41:38.439Z,73.82
2023-01-17T22:46:41.622Z,73.88
2023-01-17T22:51:43.613Z,74.05
2023-01-17T22:56:45.642Z,72.97
2023-01-17T23:01:47.623Z,72.64
2023-01-17T23:06:49.607Z,73.33
2023-01-17T23:11:54.331Z,73.69
2023-01-17T23:17:17.084Z,73.49
2023-01-17T23:22:22.139Z,73.88
2023-01-17T23:27:44.538Z,73.70
2023-01-17T23:32:49.813Z,73.12
2023-01-17T23:38:10.601Z,74.74
2023-01-17T23:43:24.728Z,73.55
2023-01-17T23:48:27.165Z,74.03
2023-01-17T23:53:29.258Z,74.57
2023-01-17T23:58:31.428Z,74.59
